Buchanan, Michigan
Current Conditions -  °F | °C
As of 8:01 AM on Sunday 21 Dec 2014 (Local Time) from KSBN Reporting Station
Overcast Overcast  
Wind Chill: 26°   Ceiling: 5000
Heat Index: 32°   Visibility: 7mi
Dew Point: 26°   Wind: 6mph
Humidity: 79%   Direction: 170°S
Pressure: 30.26"   Gusts: NA
Location:  41.83°N, 86.36°W
Report Text: KSBN 211301Z 17005KT 7SM SCT034 OVC050 00/M03 A3026 RMK AO2 T00001033
Loading
Personal Weather Stations






























Interactive Weather Map New forecast layout! Learn more

10-Day Weather Forecast

Advertisements
Track Severe Weather on mobile